»·PEaware :: N739VN KSBP-KSMX

N739VN :: KSBP-KSMX

FLIGHT INFORMATION

Flight Status: Arrived
Operator: Privately registered:
United States
More flights under this callsign
Pilot: William R. (21243)
Aircraft: CESSNA 172 SKYHAWK
(C172)
More flights by this aircraft type
Origin: KSBP San Luis Co Regl
United States
Destination: KSMX Santa Maria Pub/Capt Hancock
United States
More flights between these airports :: More routes between these airports
Route:
File this flight plan on PilotEdge
Remarks: CAT 04
Altitude:
(Current/Filed)
3,000ft
Speed:
(Current/Filed)
120kts
Departed: 09-Mar-19 02:58 PM
Arrived: 09-Mar-19 03:15 PM
Distance/Time
Traveled:
23nm/0:17
Distance/Time
To Go:
Arrived

Flight Plot

Page will automatically refresh every two minutes.


Map Options




Map Legend


Flown Route
Filed Route
Departure Airport
Arrival Airport
Navaid (VOR, NDB)
Fix

Horizontal Profiles

Position Reports

Time Latitude Longitude Heading Altitude Ground
Speed
09-Mar-19 14:34 35.240718 -120.644499 208 216ft 0kts
09-Mar-19 14:35 35.240718 -120.644499 208 216ft 0kts
09-Mar-19 14:36 35.240718 -120.644499 208 216ft 0kts
09-Mar-19 14:37 35.240718 -120.644499 208 216ft 0kts
09-Mar-19 14:38 35.240718 -120.644499 208 216ft 0kts
09-Mar-19 14:39 35.240718 -120.644499 208 216ft 0kts
09-Mar-19 14:39 35.240718 -120.644499 208 216ft 0kts
09-Mar-19 14:40 35.240718 -120.644499 208 216ft 0kts
09-Mar-19 14:42 35.240718 -120.644499 208 216ft 0kts
09-Mar-19 14:43 35.240718 -120.644499 208 216ft 0kts
09-Mar-19 14:43 35.240718 -120.644499 208 216ft 0kts
09-Mar-19 14:44 35.240718 -120.644499 208 216ft 0kts
09-Mar-19 14:46 35.240718 -120.644499 208 216ft 0kts
09-Mar-19 14:46 35.240718 -120.644499 208 216ft 0kts
09-Mar-19 14:47 35.240718 -120.644499 208 216ft 0kts
09-Mar-19 14:48 35.240718 -120.644499 208 216ft 0kts
09-Mar-19 14:49 35.240718 -120.644499 208 216ft 0kts
09-Mar-19 14:50 35.240718 -120.644499 208 216ft 0kts
09-Mar-19 14:51 35.240718 -120.644499 208 216ft 0kts
09-Mar-19 14:52 35.239984 -120.643768 125 216ft 14kts
09-Mar-19 14:53 35.236910 -120.638345 127 216ft 20kts
09-Mar-19 14:54 35.234130 -120.633908 215 216ft 3kts
09-Mar-19 14:55 35.234117 -120.633920 214 216ft 0kts
09-Mar-19 14:56 35.234117 -120.633920 214 216ft 0kts
09-Mar-19 14:57 35.236299 -120.639019 299 236ft 81kts
09-Mar-19 14:58 35.243143 -120.664632 199 1255ft 84kts
09-Mar-19 14:59 35.220727 -120.648690 148 2118ft 102kts
09-Mar-19 15:00 35.198477 -120.624638 137 2859ft 109kts
09-Mar-19 15:01 35.171395 -120.606351 169 3414ft 112kts
09-Mar-19 15:02 35.139917 -120.594824 163 3750ft 122kts
09-Mar-19 15:03 35.107005 -120.579777 162 3919ft 130kts
09-Mar-19 15:04 35.072009 -120.566429 167 3708ft 135kts
09-Mar-19 15:05 35.036531 -120.553271 169 2575ft 127kts
09-Mar-19 15:06 35.003771 -120.539629 164 1712ft 126kts
09-Mar-19 15:07 34.971620 -120.527734 163 1077ft 115kts
09-Mar-19 15:08 34.944413 -120.514426 157 932ft 95kts
09-Mar-19 15:09 34.924444 -120.496506 139 995ft 84kts
09-Mar-19 15:10 34.906862 -120.478263 142 1062ft 82kts
09-Mar-19 15:11 34.889140 -120.458513 138 1129ft 87kts
09-Mar-19 15:12 34.873381 -120.436910 77 1135ft 94kts
09-Mar-19 15:13 34.889479 -120.441789 314 542ft 61kts
09-Mar-19 15:14 34.897413 -120.450307 2 265ft 15kts
09-Mar-19 15:15 34.898769 -120.450259 6 265ft 0kts
09-Mar-19 15:16 34.898810 -120.450257 356 265ft 0kts
09-Mar-19 15:17 35.437595 -119.055125 139 510ft 0kts
09-Mar-19 15:18 35.437595 -119.055125 139 510ft 0kts
09-Mar-19 15:19 35.437595 -119.055125 139 510ft 0kts
09-Mar-19 15:20 35.437595 -119.055125 139 510ft 0kts
09-Mar-19 15:21 35.437595 -119.055125 139 510ft 0kts
09-Mar-19 15:22 35.437595 -119.055125 139 510ft 0kts
09-Mar-19 15:23 35.437595 -119.055125 139 510ft 0kts
09-Mar-19 15:24 35.437595 -119.055125 139 510ft 0kts
09-Mar-19 15:25 34.898776 -120.448386 134 265ft 0kts
09-Mar-19 15:26 34.890854 -120.449123 30 265ft 0kts
09-Mar-19 15:27 34.890854 -120.449123 30 265ft 0kts
09-Mar-19 15:28 34.890854 -120.449123 30 265ft 0kts

Navigation Log

Ident Type
Flight plan parsing failed, navigation log unavailable